Time;durP1;ratioP1;P1;durP2;ratioP2;P2;SDS_P1;SDS_P2;PMS_P1;PMS_P2;Temp;Humidity;BMP_temperature;BMP_pressure;BME280_temperature;BME280_humidity;BME280_pressure;Samples;Min_cycle;Max_cycle;Signal;HPM_P1;HPM_P2
2022/05/28 00:00:22;;;;;;;;;3.00;3.00;;;;;;;;5122986;27;62847;-74
2022/05/28 00:02:48;;;;;;;;;3.25;3.00;;;;;;;;5123684;27;61906;-74
2022/05/28 00:05:13;;;;;;;;;3.00;3.00;;;;;;;;5122166;27;61856;-74
2022/05/28 00:07:40;;;;;;;;;7.75;3.00;;;;;;;;5122888;27;62014;-73
2022/05/28 00:10:05;;;;;;;;;4.00;3.50;;;;;;;;5123725;27;61736;-74
2022/05/28 00:12:31;;;;;;;;;3.50;2.00;;;;;;;;5125399;27;62049;-74
2022/05/28 00:14:57;;;;;;;;;5.50;3.00;;;;;;;;5126901;27;61910;-74
2022/05/28 00:17:22;;;;;;;;;3.50;3.50;;;;;;;;5126248;27;61965;-74
2022/05/28 00:19:48;;;;;;;;;2.00;2.00;;;;;;;;5127086;27;61890;-74
2022/05/28 00:22:14;;;;;;;;;4.00;4.00;;;;;;;;5127022;27;61775;-74
2022/05/28 00:24:39;;;;;;;;;4.00;2.50;;;;;;;;5127106;27;62420;-74
2022/05/28 00:27:05;;;;;;;;;2.25;2.25;;;;;;;;5126180;27;61884;-74
2022/05/28 00:29:30;;;;;;;;;5.25;3.00;;;;;;;;5126105;27;61876;-74
2022/05/28 00:31:55;;;;;;;;;4.25;3.00;;;;;;;;5125501;27;61726;-74
2022/05/28 00:34:21;;;;;;;;;3.00;2.25;;;;;;;;5127049;27;61951;-74
2022/05/28 00:36:46;;;;;;;;;1.75;1.75;;;;;;;;5126240;27;62570;-74
2022/05/28 00:39:12;;;;;;;;;3.25;3.25;;;;;;;;5125117;27;61711;-74
2022/05/28 00:41:37;;;;;;;;;2.50;2.50;;;;;;;;5126621;27;61692;-74
2022/05/28 00:44:03;;;;;;;;;5.50;4.00;;;;;;;;5126113;27;61957;-74
2022/05/28 00:46:28;;;;;;;;;5.00;2.50;;;;;;;;5125991;27;61771;-74
2022/05/28 00:48:56;;;;;;;;;1.50;1.50;;;;;;;;5125109;27;61906;-74
2022/05/28 00:51:24;;;;;;;;;3.50;2.75;;;;;;;;5125290;27;61789;-74
2022/05/28 00:53:50;;;;;;;;;3.50;3.50;;;;;;;;5124944;27;61864;-74
2022/05/28 00:56:16;;;;;;;;;5.75;3.00;;;;;;;;5125957;27;61675;-74
2022/05/28 00:58:41;;;;;;;;;3.50;2.50;;;;;;;;5125433;27;61740;-74
2022/05/28 01:01:08;;;;;;;;;2.00;2.00;;;;;;;;5126398;27;61946;-74
2022/05/28 01:03:41;;;;;;;;;4.00;3.00;;;;;;;;5126457;27;62130;-74
2022/05/28 01:06:30;;;;;;;;;3.00;3.00;;;;;;;;5125999;27;62043;-74
2022/05/28 01:09:01;;;;;;;;;4.00;2.00;;;;;;;;5124636;27;61810;-74
2022/05/28 01:11:36;;;;;;;;;4.25;3.25;;;;;;;;5124563;27;61753;-74
2022/05/28 01:14:07;;;;;;;;;5.75;4.50;;;;;;;;5126205;27;61887;-74
2022/05/28 01:16:35;;;;;;;;;5.00;3.00;;;;;;;;5124326;27;63670;-74
2022/05/28 01:19:14;;;;;;;;;3.00;2.00;;;;;;;;5124402;27;61942;-74
2022/05/28 01:21:51;;;;;;;;;2.75;2.75;;;;;;;;5124671;27;61803;-74
2022/05/28 01:24:24;;;;;;;;;4.25;3.00;;;;;;;;5124601;27;62218;-74
2022/05/28 01:26:55;;;;;;;;;3.75;3.50;;;;;;;;5123912;27;63870;-74
2022/05/28 01:29:22;;;;;;;;;2.50;2.00;;;;;;;;5124042;27;61784;-74
2022/05/28 01:31:47;;;;;;;;;5.25;4.25;;;;;;;;5124321;27;61701;-74
2022/05/28 01:34:14;;;;;;;;;5.50;3.00;;;;;;;;5124883;27;62083;-73
2022/05/28 01:36:40;;;;;;;;;3.75;3.00;;;;;;;;5125504;27;61771;-74
2022/05/28 01:39:06;;;;;;;;;4.50;3.25;;;;;;;;5125371;27;61812;-74
2022/05/28 01:41:33;;;;;;;;;2.00;2.00;;;;;;;;5125413;27;61929;-74
2022/05/28 01:43:58;;;;;;;;;3.00;3.00;;;;;;;;5125399;27;61970;-74
2022/05/28 01:46:27;;;;;;;;;5.50;3.75;;;;;;;;5125084;27;62056;-74
2022/05/28 01:48:53;;;;;;;;;3.75;2.00;;;;;;;;5124175;27;61751;-74
2022/05/28 01:51:20;;;;;;;;;5.75;3.75;;;;;;;;5125744;27;61787;-74
2022/05/28 01:56:30;;;;;;;;;2.50;2.50;;;;;;;;5124670;27;62425;-74
2022/05/28 01:58:56;;;;;;;;;4.75;4.00;;;;;;;;5124994;27;61899;-74
2022/05/28 02:01:21;;;;;;;;;2.75;2.75;;;;;;;;5125517;27;61780;-74
2022/05/28 02:03:48;;;;;;;;;8.75;2.50;;;;;;;;5125475;27;61692;-74
2022/05/28 02:06:14;;;;;;;;;3.50;2.25;;;;;;;;5124937;27;62798;-74
2022/05/28 02:08:42;;;;;;;;;2.00;2.00;;;;;;;;5124871;27;61692;-74
2022/05/28 02:11:16;;;;;;;;;3.50;3.50;;;;;;;;5125213;27;61844;-74
2022/05/28 02:13:41;;;;;;;;;7.25;3.00;;;;;;;;5123185;27;62096;-74
2022/05/28 02:16:11;;;;;;;;;3.75;2.75;;;;;;;;5124802;27;61782;-74
2022/05/28 02:18:36;;;;;;;;;7.00;3.50;;;;;;;;5124932;27;61839;-74
2022/05/28 02:21:04;;;;;;;;;5.00;4.00;;;;;;;;5125177;27;61959;-74
2022/05/28 02:23:59;;;;;;;;;5.00;3.50;;;;;;;;5125284;27;62103;-73
2022/05/28 02:26:30;;;;;;;;;2.25;2.00;;;;;;;;5105192;27;63775;-73
2022/05/28 02:28:58;;;;;;;;;3.00;3.00;;;;;;;;5123161;27;61848;-74
2022/05/28 02:31:25;;;;;;;;;6.00;4.00;;;;;;;;5125042;27;61681;-74
2022/05/28 02:33:50;;;;;;;;;5.25;3.00;;;;;;;;5124397;27;61740;-74
2022/05/28 02:36:16;;;;;;;;;4.00;3.00;;;;;;;;5123903;27;62822;-74
2022/05/28 02:38:42;;;;;;;;;8.00;4.00;;;;;;;;5124292;27;62047;-74
2022/05/28 02:41:07;;;;;;;;;2.25;2.25;;;;;;;;5123504;27;61986;-74
2022/05/28 02:43:33;;;;;;;;;4.00;2.75;;;;;;;;5124678;27;62115;-74
2022/05/28 02:46:02;;;;;;;;;4.00;3.00;;;;;;;;5122639;27;62672;-74
2022/05/28 02:48:27;;;;;;;;;5.50;3.50;;;;;;;;5124526;27;61889;-74
2022/05/28 02:50:53;;;;;;;;;3.00;2.75;;;;;;;;5124749;27;61943;-74
2022/05/28 02:53:18;;;;;;;;;3.50;3.00;;;;;;;;5124127;27;61750;-74
2022/05/28 02:55:43;;;;;;;;;3.75;3.75;;;;;;;;5123762;27;62766;-74
2022/05/28 02:58:08;;;;;;;;;6.00;2.00;;;;;;;;5124130;27;62127;-74
2022/05/28 03:00:34;;;;;;;;;2.75;2.50;;;;;;;;5124589;27;61717;-74
2022/05/28 03:02:59;;;;;;;;;3.00;3.00;;;;;;;;5124818;27;61688;-74
2022/05/28 03:05:25;;;;;;;;;5.50;3.00;;;;;;;;5122269;27;64939;-74
2022/05/28 03:07:51;;;;;;;;;5.25;2.75;;;;;;;;5122524;27;61840;-73
2022/05/28 03:10:16;;;;;;;;;5.00;3.00;;;;;;;;5124582;27;61859;-73
2022/05/28 03:12:42;;;;;;;;;5.00;3.00;;;;;;;;5124370;27;61820;-74
2022/05/28 03:15:08;;;;;;;;;5.50;4.00;;;;;;;;5123160;27;61882;-73
2022/05/28 03:17:33;;;;;;;;;4.50;4.00;;;;;;;;5124353;27;61653;-73
2022/05/28 03:20:01;;;;;;;;;8.00;6.25;;;;;;;;5124252;27;61836;-73
2022/05/28 03:22:26;;;;;;;;;6.50;4.00;;;;;;;;5122836;27;61953;-74
2022/05/28 03:24:51;;;;;;;;;8.00;3.75;;;;;;;;5122218;27;64833;-74
2022/05/28 03:27:17;;;;;;;;;2.75;2.50;;;;;;;;5122689;27;61916;-74
2022/05/28 03:29:42;;;;;;;;;3.00;3.00;;;;;;;;5123766;27;61942;-74
2022/05/28 03:32:07;;;;;;;;;3.75;3.00;;;;;;;;5124474;27;61778;-74
2022/05/28 03:34:32;;;;;;;;;6.50;2.00;;;;;;;;5121869;27;64802;-74
2022/05/28 03:36:58;;;;;;;;;5.00;5.00;;;;;;;;5122327;27;61900;-74
2022/05/28 03:39:23;;;;;;;;;3.25;3.25;;;;;;;;5123633;27;61867;-74
2022/05/28 03:41:48;;;;;;;;;3.25;3.25;;;;;;;;5124127;27;61775;-74
2022/05/28 03:44:14;;;;;;;;;5.50;3.00;;;;;;;;5123189;27;61839;-73
2022/05/28 03:46:39;;;;;;;;;3.50;3.25;;;;;;;;5122590;27;61873;-74
2022/05/28 03:49:19;;;;;;;;;5.25;2.50;;;;;;;;5123744;27;62053;-74
2022/05/28 03:51:45;;;;;;;;;3.00;3.00;;;;;;;;5124017;27;61674;-74
2022/05/28 03:54:10;;;;;;;;;5.50;3.50;;;;;;;;5122625;27;61837;-73
2022/05/28 03:56:38;;;;;;;;;4.00;4.00;;;;;;;;5122328;27;62015;-73
2022/05/28 03:59:04;;;;;;;;;4.50;3.50;;;;;;;;5121613;27;62000;-74
2022/05/28 04:01:29;;;;;;;;;7.25;5.75;;;;;;;;5122681;27;62035;-74
2022/05/28 04:03:55;;;;;;;;;7.00;3.00;;;;;;;;5122710;27;62871;-73
2022/05/28 04:06:20;;;;;;;;;8.00;4.00;;;;;;;;5121937;27;61965;-74
2022/05/28 04:08:45;;;;;;;;;4.00;3.00;;;;;;;;5123510;27;61777;-74
2022/05/28 04:11:10;;;;;;;;;4.50;4.50;;;;;;;;5123749;27;61724;-74
2022/05/28 04:13:36;;;;;;;;;10.50;3.50;;;;;;;;5122429;27;61934;-74
2022/05/28 04:16:01;;;;;;;;;5.00;5.00;;;;;;;;5123590;27;61747;-73
2022/05/28 04:18:26;;;;;;;;;7.00;6.00;;;;;;;;5123278;27;61600;-74
2022/05/28 04:20:52;;;;;;;;;6.25;3.25;;;;;;;;5123591;27;61932;-74
2022/05/28 04:23:17;;;;;;;;;4.00;4.00;;;;;;;;5122682;27;62711;-73
2022/05/28 04:25:42;;;;;;;;;5.50;4.75;;;;;;;;5122007;27;62135;-73
2022/05/28 04:28:08;;;;;;;;;3.25;3.25;;;;;;;;5123340;27;61715;-74
2022/05/28 04:30:33;;;;;;;;;10.25;5.50;;;;;;;;5121912;27;62024;-73
2022/05/28 04:32:59;;;;;;;;;6.75;3.00;;;;;;;;5121117;27;63811;-73
2022/05/28 04:35:24;;;;;;;;;8.25;4.25;;;;;;;;5123009;27;61684;-74
2022/05/28 04:37:49;;;;;;;;;2.00;2.00;;;;;;;;5123000;27;61984;-73
2022/05/28 04:40:15;;;;;;;;;3.00;2.75;;;;;;;;5123340;27;61600;-74
2022/05/28 04:42:40;;;;;;;;;8.50;5.50;;;;;;;;5122634;27;61880;-73
2022/05/28 04:45:06;;;;;;;;;6.75;5.25;;;;;;;;5122628;27;62021;-74
2022/05/28 04:47:31;;;;;;;;;7.25;5.75;;;;;;;;5123301;27;61747;-74
2022/05/28 04:49:56;;;;;;;;;8.75;5.50;;;;;;;;5122851;27;62221;-73
2022/05/28 04:52:22;;;;;;;;;4.50;3.75;;;;;;;;5122418;27;61902;-73
2022/05/28 04:54:47;;;;;;;;;7.00;6.00;;;;;;;;5122537;27;61878;-74
2022/05/28 04:57:12;;;;;;;;;5.75;4.00;;;;;;;;5123095;27;62138;-74
2022/05/28 04:59:38;;;;;;;;;4.00;3.50;;;;;;;;5124974;27;62118;-74
2022/05/28 05:02:04;;;;;;;;;8.25;3.50;;;;;;;;5125920;27;61787;-73
2022/05/28 05:04:30;;;;;;;;;3.75;3.75;;;;;;;;5124582;27;62098;-73
2022/05/28 05:06:55;;;;;;;;;6.00;5.00;;;;;;;;5126222;27;61919;-74
2022/05/28 05:09:20;;;;;;;;;4.25;3.50;;;;;;;;5125910;27;62004;-74
2022/05/28 05:11:45;;;;;;;;;4.75;4.00;;;;;;;;5125600;27;61906;-73
2022/05/28 05:14:11;;;;;;;;;3.75;3.75;;;;;;;;5125866;27;61924;-74
2022/05/28 05:16:36;;;;;;;;;8.50;5.00;;;;;;;;5125000;27;61868;-74
2022/05/28 05:19:01;;;;;;;;;6.75;5.25;;;;;;;;5124440;27;62088;-73
2022/05/28 05:21:26;;;;;;;;;4.50;4.00;;;;;;;;5125789;27;61817;-74
2022/05/28 05:23:52;;;;;;;;;6.00;3.00;;;;;;;;5125824;27;61906;-74
2022/05/28 05:26:19;;;;;;;;;7.75;7.00;;;;;;;;5126145;27;62163;-74
2022/05/28 05:28:44;;;;;;;;;5.25;3.75;;;;;;;;5126094;27;62005;-73
2022/05/28 05:31:10;;;;;;;;;8.00;6.00;;;;;;;;5125166;27;62757;-73
2022/05/28 05:33:35;;;;;;;;;13.25;6.00;;;;;;;;5125688;27;62021;-74
2022/05/28 05:36:00;;;;;;;;;6.50;4.00;;;;;;;;5125974;27;61944;-74
2022/05/28 05:38:26;;;;;;;;;5.75;5.25;;;;;;;;5125697;27;62086;-74
2022/05/28 05:40:52;;;;;;;;;6.25;6.25;;;;;;;;5125306;27;61949;-74
2022/05/28 05:43:17;;;;;;;;;6.00;3.25;;;;;;;;5125489;27;62420;-73
2022/05/28 05:45:50;;;;;;;;;6.50;6.50;;;;;;;;5124023;27;62011;-73
2022/05/28 05:48:15;;;;;;;;;5.00;4.00;;;;;;;;5125812;27;61982;-74
2022/05/28 05:50:40;;;;;;;;;6.50;5.25;;;;;;;;5125240;27;61756;-74
2022/05/28 05:53:06;;;;;;;;;9.25;7.25;;;;;;;;5125286;27;62572;-74
2022/05/28 05:55:31;;;;;;;;;10.50;8.50;;;;;;;;5125503;27;61911;-74
2022/05/28 05:57:56;;;;;;;;;4.50;4.00;;;;;;;;5124179;27;61778;-74
2022/05/28 06:00:21;;;;;;;;;8.75;6.00;;;;;;;;5124524;27;61782;-74
2022/05/28 06:02:47;;;;;;;;;4.25;3.50;;;;;;;;5125539;27;62066;-73
2022/05/28 06:05:12;;;;;;;;;5.50;5.25;;;;;;;;5125213;27;62072;-74
2022/05/28 06:07:38;;;;;;;;;8.00;2.75;;;;;;;;5125527;27;61880;-73
2022/05/28 06:10:06;;;;;;;;;5.00;5.00;;;;;;;;5123499;27;62932;-74
2022/05/28 06:12:31;;;;;;;;;3.50;3.50;;;;;;;;5124933;27;61835;-74
2022/05/28 06:14:56;;;;;;;;;5.50;4.50;;;;;;;;5125147;27;61878;-73
2022/05/28 06:17:21;;;;;;;;;8.25;5.50;;;;;;;;5123814;27;61957;-74
2022/05/28 06:19:47;;;;;;;;;5.50;2.00;;;;;;;;5123147;27;64864;-74
2022/05/28 06:22:12;;;;;;;;;7.50;6.00;;;;;;;;5125296;27;61853;-74
2022/05/28 06:24:37;;;;;;;;;8.50;5.00;;;;;;;;5125051;27;61839;-73
2022/05/28 06:27:03;;;;;;;;;6.00;4.50;;;;;;;;5123788;27;62126;-74
2022/05/28 06:29:28;;;;;;;;;5.75;4.50;;;;;;;;5124162;27;62595;-74
2022/05/28 06:31:54;;;;;;;;;8.00;3.50;;;;;;;;5124852;27;61744;-73
2022/05/28 06:34:19;;;;;;;;;8.75;4.50;;;;;;;;5124806;27;61688;-74
2022/05/28 06:36:44;;;;;;;;;4.50;4.50;;;;;;;;5123914;27;62178;-74
2022/05/28 06:39:10;;;;;;;;;5.50;5.50;;;;;;;;5123831;27;62828;-74
2022/05/28 06:41:35;;;;;;;;;7.75;6.75;;;;;;;;5123354;27;61858;-74
2022/05/28 06:44:00;;;;;;;;;6.00;5.25;;;;;;;;5124501;27;61794;-74
2022/05/28 06:46:25;;;;;;;;;5.75;3.50;;;;;;;;5124717;27;61820;-74
2022/05/28 06:48:51;;;;;;;;;10.25;5.00;;;;;;;;5122800;27;63591;-74
2022/05/28 06:51:16;;;;;;;;;5.75;5.00;;;;;;;;5124601;27;61813;-74
2022/05/28 06:53:48;;;;;;;;;8.50;5.00;;;;;;;;5124318;27;61833;-74
2022/05/28 06:56:14;;;;;;;;;4.75;4.00;;;;;;;;5124789;27;61831;-74
2022/05/28 06:58:39;;;;;;;;;6.25;5.00;;;;;;;;5123555;27;61851;-74
2022/05/28 07:01:07;;;;;;;;;6.00;4.75;;;;;;;;5124258;27;61946;-74
2022/05/28 07:03:32;;;;;;;;;9.25;6.50;;;;;;;;5124372;27;62912;-74
2022/05/28 07:05:58;;;;;;;;;7.75;5.75;;;;;;;;5124571;27;62025;-74
2022/05/28 07:08:23;;;;;;;;;6.50;5.00;;;;;;;;5123217;27;61948;-74
2022/05/28 07:10:50;;;;;;;;;12.25;7.75;;;;;;;;5123125;27;61945;-74
2022/05/28 07:13:16;;;;;;;;;5.50;4.00;;;;;;;;5122829;27;61920;-74
2022/05/28 07:15:41;;;;;;;;;5.00;4.00;;;;;;;;5123817;27;62029;-74
2022/05/28 07:18:07;;;;;;;;;5.75;5.00;;;;;;;;5123679;27;62715;-74
2022/05/28 07:20:32;;;;;;;;;7.50;5.00;;;;;;;;5122355;27;62013;-74
2022/05/28 07:22:57;;;;;;;;;8.00;5.00;;;;;;;;5124383;27;61938;-73
2022/05/28 07:25:22;;;;;;;;;13.25;7.50;;;;;;;;5124182;27;61716;-74
2022/05/28 07:27:48;;;;;;;;;7.25;5.50;;;;;;;;5122171;27;63579;-74
2022/05/28 07:30:14;;;;;;;;;3.75;3.75;;;;;;;;5123688;27;61900;-74
2022/05/28 07:32:39;;;;;;;;;9.00;6.00;;;;;;;;5124195;27;62144;-74
2022/05/28 07:35:05;;;;;;;;;3.50;3.25;;;;;;;;5124136;27;61773;-74
2022/05/28 07:37:30;;;;;;;;;7.00;6.75;;;;;;;;5123140;27;61878;-73
2022/05/28 07:39:59;;;;;;;;;6.75;5.00;;;;;;;;5123855;27;62061;-74
2022/05/28 07:42:26;;;;;;;;;7.75;5.00;;;;;;;;5123802;27;61748;-74
2022/05/28 07:44:51;;;;;;;;;12.00;6.00;;;;;;;;5122209;27;61784;-74
2022/05/28 07:47:18;;;;;;;;;6.50;5.00;;;;;;;;5123332;27;61709;-74
2022/05/28 07:49:44;;;;;;;;;9.00;7.00;;;;;;;;5123640;27;61772;-74
2022/05/28 07:52:10;;;;;;;;;9.00;4.50;;;;;;;;5123909;27;61780;-74
2022/05/28 07:54:35;;;;;;;;;9.00;7.00;;;;;;;;5123629;27;61728;-74
2022/05/28 07:57:00;;;;;;;;;6.75;4.25;;;;;;;;5123121;27;62773;-74
2022/05/28 07:59:25;;;;;;;;;10.25;6.00;;;;;;;;5123093;27;62010;-74
2022/05/28 08:01:51;;;;;;;;;5.00;4.00;;;;;;;;5123790;27;61977;-74
2022/05/28 08:04:16;;;;;;;;;8.00;5.00;;;;;;;;5122319;27;62432;-74
2022/05/28 08:06:42;;;;;;;;;5.00;4.00;;;;;;;;5123180;27;61744;-74
2022/05/28 08:09:08;;;;;;;;;4.75;3.25;;;;;;;;5123429;27;61694;-74
2022/05/28 08:11:33;;;;;;;;;5.25;4.50;;;;;;;;5123381;27;61860;-74
2022/05/28 08:13:58;;;;;;;;;12.25;5.00;;;;;;;;5123254;27;61914;-74
2022/05/28 08:16:24;;;;;;;;;9.50;6.25;;;;;;;;5122951;27;62007;-74
2022/05/28 08:18:50;;;;;;;;;5.50;4.25;;;;;;;;5121978;27;61909;-74
2022/05/28 08:23:59;;;;;;;;;9.50;6.25;;;;;;;;5123412;27;61687;-74
2022/05/28 08:26:25;;;;;;;;;6.00;6.00;;;;;;;;5122678;27;61917;-74
2022/05/28 08:28:51;;;;;;;;;4.25;4.25;;;;;;;;5122816;27;61873;-74
2022/05/28 08:31:17;;;;;;;;;4.75;3.75;;;;;;;;5123459;27;61890;-74
2022/05/28 08:33:43;;;;;;;;;6.50;5.00;;;;;;;;5124317;27;61802;-74
2022/05/28 08:36:08;;;;;;;;;6.00;4.00;;;;;;;;5124969;27;65014;-74
2022/05/28 08:38:34;;;;;;;;;10.50;4.25;;;;;;;;5126488;27;62044;-74
2022/05/28 08:41:15;;;;;;;;;4.00;4.00;;;;;;;;5126614;27;61805;-74
2022/05/28 08:44:00;;;;;;;;;5.50;4.25;;;;;;;;5126603;27;61831;-74
2022/05/28 08:46:26;;;;;;;;;5.50;4.00;;;;;;;;5124583;27;64872;-74
2022/05/28 08:48:53;;;;;;;;;6.00;4.00;;;;;;;;5126595;27;61761;-74
2022/05/28 08:51:28;;;;;;;;;10.25;7.25;;;;;;;;5126584;27;61786;-74
2022/05/28 08:54:16;;;;;;;;;9.75;6.00;;;;;;;;5126093;27;61790;-74
2022/05/28 08:56:42;;;;;;;;;4.00;4.00;;;;;;;;5117017;27;62828;-74
2022/05/28 08:59:10;;;;;;;;;4.00;3.00;;;;;;;;5125970;27;61954;-74
2022/05/28 09:01:37;;;;;;;;;6.50;3.00;;;;;;;;5125345;27;61965;-74
2022/05/28 09:04:09;;;;;;;;;5.00;3.00;;;;;;;;5126367;27;61703;-74
2022/05/28 09:06:37;;;;;;;;;5.75;5.00;;;;;;;;5125856;27;62957;-74
2022/05/28 09:09:03;;;;;;;;;8.00;3.00;;;;;;;;5125767;27;61733;-74
2022/05/28 09:11:33;;;;;;;;;6.25;4.50;;;;;;;;5124675;27;61688;-74
2022/05/28 09:14:01;;;;;;;;;3.75;3.75;;;;;;;;5124597;27;61913;-74
2022/05/28 09:16:27;;;;;;;;;5.00;4.25;;;;;;;;5125451;27;61847;-74
2022/05/28 09:18:54;;;;;;;;;5.50;3.50;;;;;;;;5125890;27;61882;-74
2022/05/28 09:21:21;;;;;;;;;4.75;3.75;;;;;;;;5126078;27;61855;-74
2022/05/28 09:23:50;;;;;;;;;4.00;4.00;;;;;;;;5125960;27;61745;-74
2022/05/28 09:26:20;;;;;;;;;5.50;3.25;;;;;;;;5123972;27;64872;-74
2022/05/28 09:28:45;;;;;;;;;3.25;3.25;;;;;;;;5125614;27;61772;-74
2022/05/28 09:31:26;;;;;;;;;3.75;3.75;;;;;;;;5126186;27;62090;-74
2022/05/28 09:34:02;;;;;;;;;5.50;4.00;;;;;;;;5125982;27;62162;-74
2022/05/28 09:36:47;;;;;;;;;4.50;3.00;;;;;;;;5123953;27;63825;-74
2022/05/28 09:39:25;;;;;;;;;3.75;2.00;;;;;;;;5125285;27;61715;-74
2022/05/28 09:41:56;;;;;;;;;5.75;4.00;;;;;;;;5125798;27;61861;-74
2022/05/28 09:44:38;;;;;;;;;4.00;4.00;;;;;;;;5124132;27;61853;-74
2022/05/28 09:47:11;;;;;;;;;6.50;4.25;;;;;;;;5125190;27;61958;-74
2022/05/28 09:49:47;;;;;;;;;3.50;2.25;;;;;;;;5125624;27;61998;-74
2022/05/28 09:52:13;;;;;;;;;2.00;2.00;;;;;;;;5125796;27;61922;-74
2022/05/28 09:54:38;;;;;;;;;5.75;3.75;;;;;;;;5125209;27;61709;-74
2022/05/28 09:57:09;;;;;;;;;4.75;4.75;;;;;;;;5125062;27;62492;-74
2022/05/28 09:59:35;;;;;;;;;7.00;3.75;;;;;;;;5123600;27;61954;-74
2022/05/28 10:02:09;;;;;;;;;4.00;3.00;;;;;;;;5125534;27;61894;-74
2022/05/28 10:04:46;;;;;;;;;2.00;2.00;;;;;;;;5125591;27;61879;-74
2022/05/28 10:07:12;;;;;;;;;4.25;3.00;;;;;;;;5123302;27;65032;-74
2022/05/28 10:09:47;;;;;;;;;6.25;3.25;;;;;;;;5125068;27;61689;-74
2022/05/28 10:12:14;;;;;;;;;3.25;3.25;;;;;;;;5124202;27;61957;-74
2022/05/28 10:14:39;;;;;;;;;3.75;3.00;;;;;;;;5123835;27;61955;-74
2022/05/28 10:17:05;;;;;;;;;6.75;4.00;;;;;;;;5124689;27;62840;-74
2022/05/28 10:19:30;;;;;;;;;4.00;2.25;;;;;;;;5125277;27;61934;-73
2022/05/28 10:21:58;;;;;;;;;3.00;2.00;;;;;;;;5123798;27;62591;-74
2022/05/28 10:24:24;;;;;;;;;2.75;2.75;;;;;;;;5125070;27;61810;-74
2022/05/28 10:26:52;;;;;;;;;2.75;2.75;;;;;;;;5123395;27;64251;-74
2022/05/28 10:29:19;;;;;;;;;3.75;2.00;;;;;;;;5123320;27;61836;-74
2022/05/28 10:31:45;;;;;;;;;5.50;1.00;;;;;;;;5123538;27;61863;-74
2022/05/28 10:34:29;;;;;;;;;3.00;1.50;;;;;;;;5123561;27;61840;-74
2022/05/28 10:37:04;;;;;;;;;0.50;0.50;;;;;;;;5122757;27;63912;-73
2022/05/28 10:39:30;;;;;;;;;4.50;1.75;;;;;;;;5123577;27;62214;-74
2022/05/28 10:41:55;;;;;;;;;2.00;2.00;;;;;;;;5124780;27;61815;-74
2022/05/28 10:44:20;;;;;;;;;2.00;2.00;;;;;;;;5124842;27;61902;-73
2022/05/28 10:47:05;;;;;;;;;1.50;1.50;;;;;;;;5124398;27;61913;-74
2022/05/28 10:49:31;;;;;;;;;2.50;1.00;;;;;;;;5124933;27;61772;-73
2022/05/28 10:52:28;;;;;;;;;1.00;1.00;;;;;;;;5124504;27;61685;-73
2022/05/28 10:55:03;;;;;;;;;4.00;1.00;;;;;;;;5057082;28;62366;-73
2022/05/28 10:57:40;;;;;;;;;1.00;1.00;;;;;;;;5039897;28;61782;-74
2022/05/28 11:00:17;;;;;;;;;1.00;1.00;;;;;;;;5040087;28;61957;-74
2022/05/28 11:02:45;;;;;;;;;2.00;2.00;;;;;;;;5023930;28;61879;-73
2022/05/28 11:05:41;;;;;;;;;1.50;1.00;;;;;;;;5040307;28;61913;-74
2022/05/28 11:08:18;;;;;;;;;1.00;1.00;;;;;;;;5039099;28;61936;-74
2022/05/28 11:11:02;;;;;;;;;1.00;1.00;;;;;;;;5040211;28;61905;-73
2022/05/28 11:13:29;;;;;;;;;1.00;0.50;;;;;;;;5040297;28;62005;-74
2022/05/28 11:16:21;;;;;;;;;2.00;2.00;;;;;;;;5040120;28;61855;-73
2022/05/28 11:19:04;;;;;;;;;1.75;1.75;;;;;;;;5035275;28;62139;-73
2022/05/28 11:21:33;;;;;;;;;1.33;1.33;;;;;;;;5023363;28;62302;-74
2022/05/28 11:23:58;;;;;;;;;1.75;1.75;;;;;;;;5023363;28;62061;-73
2022/05/28 11:26:30;;;;;;;;;1.00;1.00;;;;;;;;5040335;28;61805;-74
2022/05/28 11:29:13;;;;;;;;;1.25;1.25;;;;;;;;5039360;28;61968;-76
2022/05/28 11:31:50;;;;;;;;;0.75;0.75;;;;;;;;5100682;27;61912;-76
2022/05/28 11:34:27;;;;;;;;;4.75;2.25;;;;;;;;5103019;27;62024;-76
2022/05/28 11:37:04;;;;;;;;;4.00;1.00;;;;;;;;5103490;27;61939;-76
2022/05/28 11:39:32;;;;;;;;;5.50;3.75;;;;;;;;5102650;27;61738;-73
2022/05/28 11:42:24;;;;;;;;;3.00;2.00;;;;;;;;5103242;27;61718;-73
2022/05/28 11:44:54;;;;;;;;;1.00;1.00;;;;;;;;5079731;28;61931;-73
2022/05/28 11:47:36;;;;;;;;;3.00;1.00;;;;;;;;5080402;28;62191;-74
2022/05/28 11:52:57;;;;;;;;;0.67;0.67;;;;;;;;5077634;28;61928;-76
2022/05/28 11:55:27;;;;;;;;;2.67;1.67;;;;;;;;5080032;27;62336;-76
2022/05/28 11:57:55;;;;;;;;;1.33;1.33;;;;;;;;5063297;28;61964;-73
2022/05/28 12:00:21;;;;;;;;;4.67;1.33;;;;;;;;5078722;28;61916;-73
2022/05/28 12:02:53;;;;;;;;;2.33;1.00;;;;;;;;5063221;28;62037;-76
2022/05/28 12:05:21;;;;;;;;;2.00;1.67;;;;;;;;5062476;28;61767;-73
2022/05/28 12:07:52;;;;;;;;;2.33;1.00;;;;;;;;5080854;28;61898;-73
2022/05/28 12:10:32;;;;;;;;;1.00;1.00;;;;;;;;5082906;27;62365;-73
2022/05/28 12:12:59;;;;;;;;;2.00;0.67;;;;;;;;5083338;28;62094;-73
2022/05/28 12:15:32;;;;;;;;;1.00;1.00;;;;;;;;5083131;27;61853;-73
2022/05/28 12:18:09;;;;;;;;;0.33;0.33;;;;;;;;5083744;28;61792;-74
2022/05/28 12:20:47;;;;;;;;;1.67;1.67;;;;;;;;5085092;27;62237;-74
2022/05/28 12:23:12;;;;;;;;;7.00;1.67;;;;;;;;5126923;27;62058;-74
2022/05/28 12:25:38;;;;;;;;;0.00;0.00;;;;;;;;5127208;27;62337;-74
2022/05/28 12:28:08;;;;;;;;;1.67;1.67;;;;;;;;5125804;27;61659;-73
2022/05/28 12:30:39;;;;;;;;;3.00;1.67;;;;;;;;5126015;27;61998;-74
2022/05/28 12:33:04;;;;;;;;;2.33;0.67;;;;;;;;5126651;27;61756;-74
2022/05/28 12:35:30;;;;;;;;;0.33;0.33;;;;;;;;5126456;27;61735;-74
2022/05/28 12:38:10;;;;;;;;;0.67;0.67;;;;;;;;5126974;27;62101;-74
2022/05/28 12:40:36;;;;;;;;;0.00;0.00;;;;;;;;5126280;27;62097;-74
2022/05/28 12:43:21;;;;;;;;;0.33;0.33;;;;;;;;5126835;27;61972;-74
2022/05/28 12:45:48;;;;;;;;;1.33;1.33;;;;;;;;5062314;28;61846;-74
2022/05/28 12:48:30;;;;;;;;;2.67;2.67;;;;;;;;5045761;28;61778;-74
2022/05/28 12:51:09;;;;;;;;;1.00;1.00;;;;;;;;5045226;28;64918;-74
2022/05/28 12:53:46;;;;;;;;;0.67;0.67;;;;;;;;5062453;28;61857;-74
2022/05/28 12:56:21;;;;;;;;;1.67;1.67;;;;;;;;5062828;28;61785;-77
2022/05/28 12:58:46;;;;;;;;;0.00;0.00;;;;;;;;5062806;28;61958;-74
2022/05/28 13:01:24;;;;;;;;;3.00;0.00;;;;;;;;5061675;28;61811;-74
2022/05/28 13:03:50;;;;;;;;;0.00;0.00;;;;;;;;5062439;28;61948;-76
2022/05/28 13:06:21;;;;;;;;;2.00;0.00;;;;;;;;5045525;28;61763;-74
2022/05/28 13:08:54;;;;;;;;;1.00;1.00;;;;;;;;5062707;28;61820;-75
2022/05/28 13:11:25;;;;;;;;;2.00;1.00;;;;;;;;5061698;28;62835;-76
2022/05/28 13:13:54;;;;;;;;;1.33;0.33;;;;;;;;5062100;28;61947;-76
2022/05/28 13:16:38;;;;;;;;;2.00;0.00;;;;;;;;5045016;28;61796;-75
2022/05/28 13:19:19;;;;;;;;;0.67;0.67;;;;;;;;5062032;28;62073;-76
2022/05/28 13:21:57;;;;;;;;;1.00;1.00;;;;;;;;5062585;27;62846;-75
2022/05/28 13:24:41;;;;;;;;;1.00;1.00;;;;;;;;5125863;27;61803;-75
2022/05/28 13:27:06;;;;;;;;;1.00;1.00;;;;;;;;5126070;27;61738;-75
2022/05/28 13:29:41;;;;;;;;;2.00;1.00;;;;;;;;5125962;27;61840;-76
2022/05/28 13:32:25;;;;;;;;;0.67;0.67;;;;;;;;5125459;27;62818;-76
2022/05/28 13:35:00;;;;;;;;;4.00;2.67;;;;;;;;5125888;27;61678;-76
2022/05/28 13:37:25;;;;;;;;;1.00;1.00;;;;;;;;5124239;27;61852;-76
2022/05/28 13:39:51;;;;;;;;;1.33;0.00;;;;;;;;5124436;27;61793;-75
2022/05/28 13:42:18;;;;;;;;;0.00;0.00;;;;;;;;5125474;27;61766;-76
2022/05/28 13:44:46;;;;;;;;;0.67;0.67;;;;;;;;5125450;27;61839;-76
2022/05/28 13:47:12;;;;;;;;;3.00;0.33;;;;;;;;5124289;27;61982;-76
2022/05/28 13:49:38;;;;;;;;;2.33;0.00;;;;;;;;5125874;27;62095;-76
2022/05/28 13:52:14;;;;;;;;;0.00;0.00;;;;;;;;5125064;27;61681;-76
2022/05/28 13:54:39;;;;;;;;;0.00;0.00;;;;;;;;5125027;27;61823;-75
2022/05/28 13:57:06;;;;;;;;;1.00;1.00;;;;;;;;5125616;27;61720;-76
2022/05/28 13:59:31;;;;;;;;;0.00;0.00;;;;;;;;5125672;27;62113;-75
2022/05/28 14:01:56;;;;;;;;;1.67;0.00;;;;;;;;5124760;27;61780;-76
2022/05/28 14:04:23;;;;;;;;;0.67;0.00;;;;;;;;5125346;27;61778;-76
2022/05/28 14:06:48;;;;;;;;;0.00;0.00;;;;;;;;5125681;27;61833;-76
2022/05/28 14:09:13;;;;;;;;;0.00;0.00;;;;;;;;5125380;27;61902;-75
2022/05/28 14:11:39;;;;;;;;;0.00;0.00;;;;;;;;5124713;27;62502;-76
2022/05/28 14:14:13;;;;;;;;;0.00;0.00;;;;;;;;5125076;27;61967;-75
2022/05/28 14:16:44;;;;;;;;;1.33;0.67;;;;;;;;5125401;27;61716;-75
2022/05/28 14:19:16;;;;;;;;;2.67;0.00;;;;;;;;5125284;27;62037;-75
2022/05/28 14:21:48;;;;;;;;;1.00;0.00;;;;;;;;5123149;27;64005;-75
2022/05/28 14:24:20;;;;;;;;;0.00;0.00;;;;;;;;5123768;27;61747;-75
2022/05/28 14:26:49;;;;;;;;;1.00;0.00;;;;;;;;5125163;27;61745;-75
2022/05/28 14:29:15;;;;;;;;;0.00;0.00;;;;;;;;5124548;27;62077;-76
2022/05/28 14:31:40;;;;;;;;;0.00;0.00;;;;;;;;5123251;27;61743;-76
2022/05/28 14:34:08;;;;;;;;;0.00;0.00;;;;;;;;5125191;27;61927;-76
2022/05/28 14:36:35;;;;;;;;;0.00;0.00;;;;;;;;5124909;27;61781;-76
2022/05/28 14:39:07;;;;;;;;;0.00;0.00;;;;;;;;5123462;27;61834;-75
2022/05/28 14:41:33;;;;;;;;;0.00;0.00;;;;;;;;5124433;27;62754;-75
2022/05/28 14:43:58;;;;;;;;;0.67;0.67;;;;;;;;5124066;27;61877;-76
2022/05/28 14:46:36;;;;;;;;;0.00;0.00;;;;;;;;5124877;27;61743;-76
2022/05/28 14:49:05;;;;;;;;;0.67;0.67;;;;;;;;5125052;27;61816;-76
2022/05/28 14:51:35;;;;;;;;;0.00;0.00;;;;;;;;5124442;27;62776;-76
2022/05/28 14:54:01;;;;;;;;;1.33;0.00;;;;;;;;5124519;27;61978;-76
2022/05/28 14:56:31;;;;;;;;;0.33;0.33;;;;;;;;5124389;27;61871;-76
2022/05/28 14:58:56;;;;;;;;;0.00;0.00;;;;;;;;5122909;27;62091;-76